createdAt,value
2018-08-17T00:01:27.105Z,19.86
2018-08-17T00:04:00.451Z,19.81
2018-08-17T00:06:37.504Z,19.80
2018-08-17T00:09:12.763Z,19.74
2018-08-17T00:11:46.504Z,19.74
2018-08-17T00:14:19.254Z,19.63
2018-08-17T00:16:53.415Z,19.57
2018-08-17T00:19:27.537Z,19.46
2018-08-17T00:22:03.937Z,19.41
2018-08-17T00:24:39.546Z,19.39
2018-08-17T00:27:13.102Z,19.29
2018-08-17T00:29:46.162Z,19.23
2018-08-17T00:32:19.680Z,19.19
2018-08-17T00:34:54.284Z,19.12
2018-08-17T00:37:27.020Z,19.16
2018-08-17T00:40:01.151Z,19.28
2018-08-17T00:42:36.360Z,19.36
2018-08-17T00:45:09.735Z,19.37
2018-08-17T00:47:44.184Z,19.42
2018-08-17T00:50:18.380Z,19.43
2018-08-17T00:53:00.830Z,19.50
2018-08-17T00:55:34.625Z,19.53
2018-08-17T00:58:08.951Z,19.59
2018-08-17T01:00:44.176Z,19.69
2018-08-17T01:03:16.833Z,19.74
2018-08-17T01:05:50.267Z,19.79
2018-08-17T01:08:22.867Z,19.85
2018-08-17T01:10:58.047Z,19.95
2018-08-17T01:13:30.844Z,20.14
2018-08-17T01:16:03.829Z,20.19
2018-08-17T01:18:37.006Z,20.23
2018-08-17T01:21:10.351Z,20.35
2018-08-17T01:23:44.043Z,20.47
2018-08-17T01:26:17.407Z,20.52
2018-08-17T01:28:51.289Z,20.55
2018-08-17T01:31:25.907Z,20.53
2018-08-17T01:33:58.672Z,20.57
2018-08-17T01:36:32.172Z,20.62
2018-08-17T01:39:08.089Z,20.69
2018-08-17T01:41:40.776Z,20.68
2018-08-17T01:44:13.377Z,20.75
2018-08-17T01:46:46.187Z,20.72
2018-08-17T01:49:18.868Z,20.69
2018-08-17T01:51:51.156Z,20.70
2018-08-17T01:54:24.117Z,20.69
2018-08-17T01:56:58.212Z,20.64
2018-08-17T01:59:31.996Z,20.57
2018-08-17T02:02:05.358Z,20.51
2018-08-17T02:04:37.880Z,20.45
2018-08-17T02:07:10.828Z,20.37
2018-08-17T02:09:45.344Z,20.28
2018-08-17T02:12:18.428Z,20.10
2018-08-17T02:14:51.088Z,19.94
2018-08-17T02:17:23.880Z,19.88
2018-08-17T02:19:56.493Z,19.85
2018-08-17T02:22:29.360Z,19.83
2018-08-17T02:25:02.289Z,19.72
2018-08-17T02:27:34.884Z,19.61
2018-08-17T02:30:07.912Z,19.47
2018-08-17T02:32:42.794Z,19.38
2018-08-17T02:35:15.439Z,19.28
2018-08-17T02:37:47.999Z,19.17
2018-08-17T02:40:22.205Z,19.11
2018-08-17T02:42:55.041Z,19.07
2018-08-17T02:45:28.479Z,19.01
2018-08-17T02:48:02.341Z,18.98
2018-08-17T02:50:34.936Z,18.93
2018-08-17T02:53:08.414Z,18.86
2018-08-17T02:55:41.355Z,18.80
2018-08-17T02:58:13.957Z,18.67
2018-08-17T03:00:46.600Z,18.61
2018-08-17T03:03:19.559Z,18.55
2018-08-17T03:05:52.501Z,18.53
2018-08-17T03:08:24.992Z,18.48
2018-08-17T03:10:57.881Z,18.42
2018-08-17T03:13:31.364Z,18.33
2018-08-17T03:16:03.995Z,18.26
2018-08-17T03:18:36.745Z,18.24
2018-08-17T03:21:09.390Z,18.27
2018-08-17T03:23:42.239Z,18.27
2018-08-17T03:26:15.206Z,18.22
2018-08-17T03:28:47.663Z,18.22
2018-08-17T03:31:20.405Z,18.29
2018-08-17T03:33:54.033Z,18.33
2018-08-17T03:36:27.220Z,18.34
2018-08-17T03:38:59.780Z,18.33
2018-08-17T03:41:37.962Z,18.36
2018-08-17T03:44:16.254Z,18.32
2018-08-17T03:46:51.742Z,18.27
2018-08-17T03:49:25.677Z,18.18
2018-08-17T03:51:58.288Z,18.06
2018-08-17T03:54:30.824Z,18.04
2018-08-17T03:57:05.628Z,18.01
2018-08-17T03:59:38.190Z,17.99
2018-08-17T04:02:10.757Z,17.93
2018-08-17T04:04:44.055Z,17.97
2018-08-17T04:07:16.839Z,17.93
2018-08-17T04:09:49.415Z,17.83
2018-08-17T04:12:23.157Z,17.90
2018-08-17T04:14:55.791Z,17.83
2018-08-17T04:17:29.124Z,17.77
2018-08-17T04:20:05.062Z,17.74
2018-08-17T04:22:37.612Z,17.77
2018-08-17T04:25:10.283Z,17.72
2018-08-17T04:27:44.810Z,17.72
2018-08-17T04:30:16.495Z,17.84
2018-08-17T04:32:49.647Z,17.95
2018-08-17T04:35:25.685Z,18.07
2018-08-17T04:37:59.661Z,18.21
2018-08-17T04:40:33.220Z,18.25
2018-08-17T04:43:05.777Z,18.29
2018-08-17T04:45:39.631Z,18.26
2018-08-17T04:48:12.170Z,18.30
2018-08-17T04:50:45.261Z,18.31
2018-08-17T04:53:18.160Z,18.33
2018-08-17T04:55:50.761Z,18.34
2018-08-17T04:58:23.327Z,18.35
2018-08-17T05:00:56.940Z,18.41
2018-08-17T05:03:30.081Z,18.43
2018-08-17T05:06:02.474Z,18.46
2018-08-17T05:08:35.269Z,18.54
2018-08-17T05:11:08.560Z,18.65
2018-08-17T05:13:40.968Z,18.72
2018-08-17T05:16:14.792Z,18.74
2018-08-17T05:18:47.448Z,18.75
2018-08-17T05:21:22.327Z,18.76
2018-08-17T05:23:55.249Z,18.77
2018-08-17T05:26:27.736Z,18.82
2018-08-17T05:29:01.234Z,18.84
2018-08-17T05:31:34.759Z,18.83
2018-08-17T05:34:07.428Z,18.87
2018-08-17T05:36:40.010Z,18.89
2018-08-17T05:39:13.773Z,18.93
2018-08-17T05:41:47.125Z,18.93
2018-08-17T05:44:19.726Z,18.89
2018-08-17T05:46:52.519Z,18.86
2018-08-17T05:49:25.192Z,18.84
2018-08-17T05:51:58.530Z,18.79
2018-08-17T05:54:30.879Z,18.72
2018-08-17T05:57:03.400Z,18.69
2018-08-17T05:59:35.796Z,18.62
2018-08-17T06:02:11.495Z,18.54
2018-08-17T06:04:43.992Z,18.49
2018-08-17T06:07:16.564Z,18.39
2018-08-17T06:09:51.428Z,18.25
2018-08-17T06:12:23.925Z,17.89
2018-08-17T06:15:02.569Z,17.60
2018-08-17T06:17:36.991Z,17.33
2018-08-17T06:20:10.212Z,17.02
2018-08-17T06:22:43.293Z,16.79
2018-08-17T06:25:18.225Z,16.66
2018-08-17T06:27:52.813Z,16.61
2018-08-17T06:30:25.857Z,16.58
2018-08-17T06:32:59.090Z,16.56
2018-08-17T06:35:32.896Z,16.63
2018-08-17T06:38:06.554Z,16.59
2018-08-17T06:40:41.658Z,16.58
2018-08-17T06:43:14.336Z,16.57
2018-08-17T06:45:47.321Z,16.58
2018-08-17T06:48:20.604Z,16.58
2018-08-17T06:50:56.166Z,16.59
2018-08-17T06:53:29.123Z,16.60
2018-08-17T06:56:01.847Z,16.60
2018-08-17T06:58:34.978Z,16.61
2018-08-17T07:01:07.596Z,16.62
2018-08-17T07:03:41.125Z,16.63
2018-08-17T07:06:13.745Z,16.70
2018-08-17T07:08:47.774Z,16.68
2018-08-17T07:11:23.852Z,16.71
2018-08-17T07:13:56.990Z,16.74
2018-08-17T07:16:32.742Z,16.80
2018-08-17T07:19:06.227Z,16.86
2018-08-17T07:21:42.639Z,16.91
2018-08-17T07:24:16.785Z,17.00
2018-08-17T07:26:50.326Z,17.07
2018-08-17T07:29:24.749Z,17.17
2018-08-17T07:31:58.393Z,17.27
2018-08-17T07:34:34.590Z,17.40
2018-08-17T07:37:07.591Z,17.44
2018-08-17T07:39:43.335Z,17.49
2018-08-17T07:42:16.995Z,17.60
2018-08-17T07:44:49.613Z,17.61
2018-08-17T07:47:24.355Z,17.63
2018-08-17T07:50:00.558Z,17.67
2018-08-17T07:52:36.100Z,17.78
2018-08-17T07:55:09.939Z,17.79
2018-08-17T07:57:44.029Z,17.81
2018-08-17T08:00:18.330Z,17.85
2018-08-17T08:02:52.349Z,17.96
2018-08-17T08:05:27.553Z,18.09
2018-08-17T08:08:08.499Z,18.24
2018-08-17T08:10:47.296Z,18.37
2018-08-17T08:13:20.999Z,18.54
2018-08-17T08:15:54.724Z,18.63
2018-08-17T08:18:29.077Z,18.64
2018-08-17T08:21:02.601Z,18.70
2018-08-17T08:23:38.688Z,18.97
2018-08-17T08:26:13.117Z,19.01
2018-08-17T08:28:45.666Z,19.09
2018-08-17T08:31:18.538Z,19.10
2018-08-17T08:33:51.165Z,19.05
2018-08-17T08:36:25.036Z,18.86
2018-08-17T08:38:58.434Z,18.88
2018-08-17T08:41:32.138Z,18.94
2018-08-17T08:44:06.085Z,18.94
2018-08-17T08:46:40.254Z,18.89
2018-08-17T08:49:16.292Z,18.85
2018-08-17T08:51:50.516Z,18.75
2018-08-17T08:54:23.035Z,18.62
2018-08-17T08:56:59.083Z,18.53
2018-08-17T08:59:33.785Z,18.53
2018-08-17T09:02:09.689Z,18.52
2018-08-17T09:04:42.568Z,18.53
2018-08-17T09:07:16.162Z,18.49
2018-08-17T09:09:53.083Z,18.51
2018-08-17T09:12:26.137Z,18.57
2018-08-17T09:14:59.519Z,18.73
2018-08-17T09:17:39.916Z,18.92
2018-08-17T09:20:16.569Z,19.09
2018-08-17T09:22:50.804Z,19.31
2018-08-17T09:25:24.342Z,19.52
2018-08-17T09:27:59.955Z,19.83
2018-08-17T09:30:35.666Z,20.04
2018-08-17T09:33:10.396Z,19.94
2018-08-17T09:35:44.676Z,19.60
2018-08-17T09:38:18.166Z,19.30
2018-08-17T09:40:54.419Z,19.10
2018-08-17T09:43:27.637Z,18.88
2018-08-17T09:46:00.779Z,18.70
2018-08-17T09:48:35.680Z,18.60
2018-08-17T09:51:11.419Z,18.43
2018-08-17T09:53:50.385Z,18.31
2018-08-17T09:56:22.930Z,18.23
2018-08-17T09:58:56.804Z,18.17
2018-08-17T10:01:39.369Z,18.18
2018-08-17T10:04:17.375Z,18.28
2018-08-17T10:06:56.354Z,18.36
2018-08-17T10:09:35.101Z,18.41
2018-08-17T10:12:09.110Z,18.56
2018-08-17T10:14:43.673Z,18.64
2018-08-17T10:17:17.186Z,18.82
2018-08-17T10:19:51.662Z,19.10
2018-08-17T10:22:26.492Z,19.33
2018-08-17T10:25:14.602Z,19.19
2018-08-17T10:27:55.864Z,19.00
2018-08-17T10:30:29.842Z,18.82
2018-08-17T10:33:06.510Z,18.80
2018-08-17T10:35:41.813Z,18.75
2018-08-17T10:38:21.093Z,18.80
2018-08-17T10:40:56.601Z,18.88
2018-08-17T10:43:29.525Z,19.02
2018-08-17T10:46:05.274Z,19.38
2018-08-17T10:48:37.837Z,19.63
2018-08-17T10:51:11.919Z,19.99
2018-08-17T10:53:48.484Z,20.50
2018-08-17T10:56:22.172Z,20.95
2018-08-17T10:58:55.840Z,21.12
2018-08-17T11:01:31.654Z,21.23
2018-08-17T11:04:08.132Z,21.29
2018-08-17T11:06:40.679Z,21.22
2018-08-17T11:09:15.167Z,21.23
2018-08-17T11:11:49.526Z,21.36
2018-08-17T11:14:28.238Z,21.40
2018-08-17T11:17:02.242Z,21.50
2018-08-17T11:19:37.193Z,21.90
2018-08-17T11:22:10.061Z,22.65
2018-08-17T11:24:42.813Z,23.15
2018-08-17T11:27:17.213Z,23.07
2018-08-17T11:29:51.034Z,22.60
2018-08-17T11:32:24.952Z,22.04
2018-08-17T11:35:00.579Z,21.71
2018-08-17T11:37:37.888Z,21.57
2018-08-17T11:40:12.004Z,21.75
2018-08-17T11:42:48.389Z,21.94
2018-08-17T11:45:25.342Z,21.82
2018-08-17T11:48:02.312Z,21.59
2018-08-17T11:50:38.189Z,21.38
2018-08-17T11:53:14.404Z,21.27
2018-08-17T11:55:48.013Z,21.03
2018-08-17T11:58:23.982Z,20.87
2018-08-17T12:01:26.980Z,20.66
2018-08-17T12:04:00.457Z,20.68
2018-08-17T12:06:34.244Z,20.62
2018-08-17T12:09:10.558Z,20.70
2018-08-17T12:11:46.735Z,20.76
2018-08-17T12:14:23.616Z,20.78
2018-08-17T12:16:57.568Z,20.79
2018-08-17T12:19:30.772Z,20.81
2018-08-17T12:22:06.901Z,20.81
2018-08-17T12:24:40.557Z,20.84
2018-08-17T12:27:16.653Z,20.84
2018-08-17T12:29:53.425Z,20.81
2018-08-17T12:32:26.949Z,20.86
2018-08-17T12:35:02.877Z,20.62
2018-08-17T12:37:36.728Z,20.45
2018-08-17T12:40:10.443Z,20.44
2018-08-17T12:42:43.687Z,20.60
2018-08-17T12:45:18.440Z,20.63
2018-08-17T12:47:51.205Z,20.71
2018-08-17T12:50:24.091Z,20.63
2018-08-17T12:52:59.557Z,20.61
2018-08-17T12:55:33.546Z,20.70
2018-08-17T12:58:12.290Z,20.70
2018-08-17T13:00:46.212Z,20.83
2018-08-17T13:03:21.708Z,21.22
2018-08-17T13:05:57.437Z,21.44
2018-08-17T13:08:31.162Z,21.71
2018-08-17T13:11:03.968Z,22.30
2018-08-17T13:13:37.889Z,22.67
2018-08-17T13:16:12.288Z,23.04
2018-08-17T13:18:45.869Z,22.97
2018-08-17T13:21:20.555Z,23.12
2018-08-17T13:23:53.209Z,23.12
2018-08-17T13:26:26.452Z,23.08
2018-08-17T13:28:59.950Z,23.28
2018-08-17T13:31:34.685Z,23.39
2018-08-17T13:34:09.424Z,23.74
2018-08-17T13:36:42.920Z,23.79
2018-08-17T13:39:16.454Z,24.05
2018-08-17T13:41:49.411Z,24.00
2018-08-17T13:44:25.067Z,23.80
2018-08-17T13:46:59.414Z,23.93
2018-08-17T13:49:33.149Z,23.95
2018-08-17T13:52:07.300Z,24.31
2018-08-17T13:54:40.395Z,24.28
2018-08-17T13:57:14.875Z,24.02
2018-08-17T13:59:53.062Z,23.76
2018-08-17T14:02:26.548Z,23.67
2018-08-17T14:04:59.544Z,23.87
2018-08-17T14:07:32.888Z,24.12
2018-08-17T14:10:07.679Z,24.31
2018-08-17T14:12:40.682Z,24.52
2018-08-17T14:15:16.245Z,24.64
2018-08-17T14:17:49.285Z,24.79
2018-08-17T14:20:25.536Z,25.05
2018-08-17T14:23:07.828Z,25.20
2018-08-17T14:25:41.210Z,25.44
2018-08-17T14:28:18.624Z,25.07
2018-08-17T14:30:53.627Z,24.40
2018-08-17T14:33:28.669Z,23.87
2018-08-17T14:36:07.061Z,23.58
2018-08-17T14:38:42.974Z,23.99
2018-08-17T14:41:16.271Z,24.61
2018-08-17T14:43:49.893Z,24.64
2018-08-17T14:46:22.697Z,24.59
2018-08-17T14:48:56.857Z,24.17
2018-08-17T14:51:30.064Z,24.14
2018-08-17T14:54:04.107Z,24.37
2018-08-17T14:56:36.644Z,24.82
2018-08-17T14:59:09.706Z,24.96
2018-08-17T15:01:42.674Z,25.11
2018-08-17T15:04:16.224Z,25.66
2018-08-17T15:06:51.204Z,25.92
2018-08-17T15:09:25.973Z,25.79
2018-08-17T15:11:59.391Z,25.52
2018-08-17T15:14:33.101Z,24.94
2018-08-17T15:17:09.700Z,24.63
2018-08-17T15:19:44.385Z,24.50
2018-08-17T15:22:18.987Z,24.74
2018-08-17T15:24:53.105Z,25.03
2018-08-17T15:27:26.465Z,25.44
2018-08-17T15:30:00.921Z,25.56
2018-08-17T15:32:40.591Z,25.84
2018-08-17T15:35:18.252Z,26.27
2018-08-17T15:37:51.086Z,26.77
2018-08-17T15:40:24.112Z,26.90
2018-08-17T15:43:16.058Z,26.85
2018-08-17T15:45:50.724Z,26.63
2018-08-17T15:48:23.966Z,26.73
2018-08-17T15:51:02.180Z,27.03
2018-08-17T15:53:42.334Z,27.25
2018-08-17T15:56:15.219Z,27.31
2018-08-17T15:58:48.706Z,26.85
2018-08-17T16:01:21.295Z,26.25
2018-08-17T16:03:55.126Z,25.64
2018-08-17T16:06:27.894Z,25.51
2018-08-17T16:09:01.931Z,25.88
2018-08-17T16:11:37.136Z,25.66
2018-08-17T16:14:09.758Z,25.38
2018-08-17T16:16:43.165Z,24.90
2018-08-17T16:19:16.104Z,24.55
2018-08-17T16:21:50.525Z,24.56
2018-08-17T16:24:23.001Z,24.68
2018-08-17T16:27:02.611Z,24.81
2018-08-17T16:29:40.083Z,25.15
2018-08-17T16:32:22.393Z,25.55
2018-08-17T16:34:59.248Z,25.77
2018-08-17T16:37:32.967Z,25.84
2018-08-17T16:40:11.010Z,25.99
2018-08-17T16:42:48.326Z,26.02
2018-08-17T16:45:20.960Z,26.04
2018-08-17T16:47:57.608Z,26.23
2018-08-17T16:50:34.676Z,26.25
2018-08-17T16:53:14.179Z,26.17
2018-08-17T16:55:48.125Z,26.09
2018-08-17T16:58:26.616Z,26.17
2018-08-17T17:01:00.726Z,26.40
2018-08-17T17:03:33.285Z,26.87
2018-08-17T17:06:23.883Z,26.97
2018-08-17T17:09:07.208Z,26.98
2018-08-17T17:11:42.573Z,26.78
2018-08-17T17:14:16.613Z,26.56
2018-08-17T17:16:51.484Z,26.38
2018-08-17T17:19:25.865Z,26.12
2018-08-17T17:21:59.548Z,25.83
2018-08-17T17:24:35.208Z,25.51
2018-08-17T17:27:09.508Z,25.26
2018-08-17T17:29:46.609Z,25.03
2018-08-17T17:32:20.198Z,24.65
2018-08-17T17:34:55.518Z,24.35
2018-08-17T17:37:28.484Z,24.17
2018-08-17T17:40:01.157Z,24.03
2018-08-17T17:42:37.622Z,24.02
2018-08-17T17:45:13.174Z,23.99
2018-08-17T17:47:46.695Z,23.85
2018-08-17T17:50:23.703Z,23.71
2018-08-17T17:52:59.091Z,23.54
2018-08-17T17:55:43.068Z,23.33
2018-08-17T17:58:17.963Z,23.15
2018-08-17T18:01:05.000Z,22.98
2018-08-17T18:03:44.702Z,22.84
2018-08-17T18:06:20.171Z,22.67
2018-08-17T18:09:09.469Z,22.52
2018-08-17T18:11:44.893Z,22.38
2018-08-17T18:14:21.158Z,22.24
2018-08-17T18:16:57.389Z,22.04
2018-08-17T18:19:35.261Z,21.91
2018-08-17T18:22:30.453Z,21.73
2018-08-17T18:25:15.464Z,21.52
2018-08-17T18:27:51.904Z,21.36
2018-08-17T18:30:26.868Z,21.20
2018-08-17T18:33:00.420Z,21.04
2018-08-17T18:35:33.350Z,20.85
2018-08-17T18:38:08.713Z,20.65
2018-08-17T18:40:43.444Z,20.41
2018-08-17T18:43:16.688Z,20.16
2018-08-17T18:45:50.580Z,19.93
2018-08-17T18:48:24.724Z,19.70
2018-08-17T18:50:57.332Z,19.46
2018-08-17T18:53:30.979Z,19.25
2018-08-17T18:56:05.916Z,19.05
2018-08-17T18:58:40.881Z,18.84
2018-08-17T19:01:13.835Z,18.66
2018-08-17T19:03:48.017Z,18.44
2018-08-17T19:06:22.807Z,18.25
2018-08-17T19:08:56.829Z,18.05
2018-08-17T19:11:31.446Z,17.87
2018-08-17T19:14:07.466Z,17.76
2018-08-17T19:16:42.318Z,17.56
2018-08-17T19:19:17.724Z,17.37
2018-08-17T19:21:55.082Z,17.22
2018-08-17T19:24:30.511Z,17.04
2018-08-17T19:27:06.302Z,16.88
2018-08-17T19:29:43.489Z,16.81
2018-08-17T19:32:18.025Z,16.68
2018-08-17T19:34:52.359Z,16.59
2018-08-17T19:37:28.195Z,16.41
2018-08-17T19:40:03.950Z,16.19
2018-08-17T19:42:38.914Z,16.02
2018-08-17T19:45:16.520Z,15.88
2018-08-17T19:47:55.726Z,15.78
2018-08-17T19:50:39.719Z,15.64
2018-08-17T19:53:18.572Z,15.58
2018-08-17T19:55:53.976Z,15.48
2018-08-17T19:58:31.094Z,15.41
2018-08-17T20:01:07.485Z,15.33
2018-08-17T20:03:42.835Z,15.28
2018-08-17T20:06:17.686Z,15.18
2018-08-17T20:08:53.598Z,15.04
2018-08-17T20:11:26.573Z,14.96
2018-08-17T20:14:02.471Z,14.89
2018-08-17T20:16:37.608Z,14.79
2018-08-17T20:19:16.654Z,14.70
2018-08-17T20:21:52.967Z,14.67
2018-08-17T20:24:26.666Z,14.61
2018-08-17T20:27:06.857Z,14.54
2018-08-17T20:29:40.579Z,14.46
2018-08-17T20:32:14.230Z,14.36
2018-08-17T20:34:51.343Z,14.27
2018-08-17T20:37:26.210Z,14.19
2018-08-17T20:39:59.033Z,14.13
2018-08-17T20:42:35.561Z,14.16
2018-08-17T20:45:14.409Z,14.05
2018-08-17T20:47:47.370Z,13.95
2018-08-17T20:50:22.983Z,13.92
2018-08-17T20:52:57.829Z,13.87
2018-08-17T20:55:31.464Z,13.82
2018-08-17T20:58:09.303Z,13.76
2018-08-17T21:00:43.958Z,13.79
2018-08-17T21:03:19.268Z,13.70
2018-08-17T21:05:52.353Z,13.64
2018-08-17T21:08:26.967Z,13.59
2018-08-17T21:11:06.354Z,13.55
2018-08-17T21:14:00.696Z,13.55
2018-08-17T21:16:42.449Z,13.47
2018-08-17T21:19:39.127Z,13.38
2018-08-17T21:22:13.766Z,13.36
2018-08-17T21:24:48.093Z,13.36
2018-08-17T21:27:28.339Z,13.25
2018-08-17T21:30:09.798Z,13.14
2018-08-17T21:32:48.436Z,13.08
2018-08-17T21:35:21.707Z,13.14
2018-08-17T21:37:56.066Z,13.27
2018-08-17T21:40:31.382Z,13.22
2018-08-17T21:43:04.343Z,13.19
2018-08-17T21:45:38.249Z,13.18
2018-08-17T21:48:26.892Z,13.15
2018-08-17T21:51:02.761Z,13.14
2018-08-17T21:53:45.183Z,13.14
2018-08-17T21:56:20.637Z,13.07
2018-08-17T21:58:56.407Z,13.01
2018-08-17T22:01:28.893Z,12.95
2018-08-17T22:04:07.105Z,12.87
2018-08-17T22:06:44.489Z,12.80
2018-08-17T22:09:41.598Z,12.81
2018-08-17T22:12:17.308Z,12.77
2018-08-17T22:17:42.829Z,12.84
2018-08-17T22:20:15.996Z,12.86
2018-08-17T22:22:51.785Z,12.75
2018-08-17T22:25:25.191Z,12.75
2018-08-17T22:27:57.767Z,12.65
2018-08-17T22:30:31.844Z,12.53
2018-08-17T22:33:08.469Z,12.54
2018-08-17T22:35:42.155Z,12.48
2018-08-17T22:38:16.591Z,12.43
2018-08-17T22:40:51.179Z,12.39
2018-08-17T22:43:23.577Z,12.32
2018-08-17T22:45:59.396Z,12.25
2018-08-17T22:48:33.132Z,12.19
2018-08-17T22:51:05.670Z,12.19
2018-08-17T22:53:38.437Z,12.22
2018-08-17T22:56:17.852Z,12.28
2018-08-17T22:58:53.076Z,12.35
2018-08-17T23:01:28.789Z,12.34
2018-08-17T23:04:02.368Z,12.33
2018-08-17T23:06:36.276Z,12.25
2018-08-17T23:09:14.415Z,12.17
2018-08-17T23:11:49.563Z,12.11
2018-08-17T23:14:25.038Z,12.06
2018-08-17T23:17:01.979Z,11.98
2018-08-17T23:19:37.029Z,11.97
2018-08-17T23:22:11.146Z,12.01
2018-08-17T23:24:52.373Z,12.03
2018-08-17T23:27:25.205Z,12.03
2018-08-17T23:29:58.822Z,12.08
2018-08-17T23:32:34.127Z,12.04
2018-08-17T23:35:08.132Z,11.98
2018-08-17T23:37:40.999Z,12.03
2018-08-17T23:40:14.115Z,11.99
2018-08-17T23:42:46.825Z,12.00
2018-08-17T23:45:19.467Z,11.98
2018-08-17T23:47:53.519Z,11.99
2018-08-17T23:50:27.289Z,11.92
2018-08-17T23:53:01.169Z,11.82
2018-08-17T23:55:34.093Z,11.83
2018-08-17T23:58:07.477Z,11.71
